Time;durP1;ratioP1;P1;durP2;ratioP2;P2;SDS_P1;SDS_P2;PMS_P1;PMS_P2;Temp;Humidity;BMP_temperature;BMP_pressure;BME280_temperature;BME280_humidity;BME280_pressure;Samples;Min_cycle;Max_cycle;Signal;HPM_P1;HPM_P2
2022/06/23 00:01:46;;;;;;;9.80;9.50;;;19.10;99.90;;;;;;5121657;27;20221;-77
2022/06/23 00:04:19;;;;;;;9.93;9.63;;;19.10;99.90;;;;;;5120786;28;20276;-77
2022/06/23 00:06:57;;;;;;;9.85;9.55;;;19.10;99.90;;;;;;5121362;28;20288;-78
2022/06/23 00:09:39;;;;;;;10.02;9.73;;;19.00;99.90;;;;;;5104815;28;20228;-78
2022/06/23 00:12:25;;;;;;;10.10;9.80;;;19.10;99.90;;;;;;5120476;28;20247;-77
2022/06/23 00:15:12;;;;;;;9.93;9.63;;;19.00;99.90;;;;;;5122914;28;20324;-77
2022/06/23 00:17:42;;;;;;;10.02;9.73;;;19.00;99.90;;;;;;5123048;28;20268;-77
2022/06/23 00:20:19;;;;;;;10.18;9.88;;;18.90;99.90;;;;;;5123035;28;20254;-78
2022/06/23 00:22:57;;;;;;;9.60;9.30;;;18.90;99.90;;;;;;5121661;28;20327;-78
2022/06/23 00:25:46;;;;;;;9.85;9.55;;;18.90;99.90;;;;;;5121226;28;20230;-77
2022/06/23 00:28:25;;;;;;;9.80;9.50;;;18.90;99.90;;;;;;5121233;28;20235;-77
2022/06/23 00:30:57;;;;;;;9.75;9.45;;;18.90;99.90;;;;;;5120865;28;20288;-77
2022/06/23 00:33:32;;;;;;;9.50;9.20;;;18.90;99.90;;;;;;5120601;28;20244;-77
2022/06/23 00:36:02;;;;;;;9.77;9.48;;;18.80;99.90;;;;;;5120508;28;20232;-78
2022/06/23 00:38:39;;;;;;;9.68;9.38;;;18.80;99.90;;;;;;5120152;28;20228;-78
2022/06/23 00:41:18;;;;;;;9.77;9.48;;;18.80;99.90;;;;;;5121064;28;20262;-77
2022/06/23 00:43:48;;;;;;;9.85;9.55;;;18.70;99.90;;;;;;5120262;28;20634;-78
2022/06/23 00:46:26;;;;;;;9.80;9.50;;;18.70;99.90;;;;;;5119871;28;20224;-77
2022/06/23 00:49:05;;;;;;;9.75;9.45;;;18.60;99.90;;;;;;5120455;28;20714;-77
2022/06/23 00:51:42;;;;;;;9.80;9.50;;;18.60;99.90;;;;;;5120398;28;20235;-77
2022/06/23 00:54:22;;;;;;;9.82;9.52;;;18.60;99.90;;;;;;5119908;28;20227;-78
2022/06/23 00:56:58;;;;;;;9.80;9.50;;;18.60;99.90;;;;;;5119393;28;20232;-77
2022/06/23 00:59:34;;;;;;;9.88;9.57;;;18.60;99.90;;;;;;5120506;28;20288;-78
2022/06/23 01:02:09;;;;;;;9.70;9.40;;;18.60;99.90;;;;;;5119823;28;20232;-77
2022/06/23 01:04:44;;;;;;;9.90;9.60;;;18.60;99.90;;;;;;5119506;28;20228;-78
2022/06/23 01:07:41;;;;;;;10.10;9.80;;;18.60;99.90;;;;;;5119798;28;20213;-78
2022/06/23 01:10:20;;;;;;;9.80;9.50;;;18.60;99.90;;;;;;5119534;28;20232;-78
2022/06/23 01:12:55;;;;;;;9.93;9.63;;;18.60;99.90;;;;;;5119104;28;20227;-77
2022/06/23 01:15:33;;;;;;;10.00;9.70;;;18.50;99.90;;;;;;5121814;28;20232;-77
2022/06/23 01:18:13;;;;;;;9.90;9.60;;;18.40;99.90;;;;;;5123442;28;20316;-77
2022/06/23 01:20:51;;;;;;;9.80;9.50;;;18.30;99.90;;;;;;5123348;28;20228;-77
2022/06/23 01:23:59;;;;;;;9.90;9.60;;;18.30;99.90;;;;;;5123241;28;20232;-77
2022/06/23 01:26:57;;;;;;;9.68;9.38;;;18.20;99.90;;;;;;5122727;28;20238;-78
2022/06/23 01:29:32;;;;;;;9.93;9.63;;;18.20;99.90;;;;;;5124099;28;20239;-78
2022/06/23 01:32:19;;;;;;;9.70;9.40;;;18.30;99.90;;;;;;5123158;28;20228;-77
2022/06/23 01:34:55;;;;;;;9.80;9.50;;;18.20;99.90;;;;;;5122853;28;20401;-77
2022/06/23 01:37:29;;;;;;;9.77;9.48;;;18.30;99.90;;;;;;5122776;28;20236;-78
2022/06/23 01:40:07;;;;;;;9.80;9.50;;;18.30;99.90;;;;;;5122968;28;20233;-77
2022/06/23 01:42:41;;;;;;;10.00;9.70;;;18.30;99.90;;;;;;5122259;28;20247;-77
2022/06/23 01:45:21;;;;;;;9.60;9.30;;;18.30;99.90;;;;;;5122946;28;20235;-77
2022/06/23 01:47:57;;;;;;;9.82;9.52;;;18.20;99.90;;;;;;5123805;28;20233;-77
2022/06/23 01:50:38;;;;;;;9.85;9.55;;;18.20;99.90;;;;;;5123062;28;20254;-77
2022/06/23 01:53:26;;;;;;;9.88;9.57;;;18.20;99.90;;;;;;5122200;28;20237;-77
2022/06/23 01:56:15;;;;;;;9.70;9.40;;;18.20;99.90;;;;;;5122435;28;20255;-77
2022/06/23 01:59:20;;;;;;;9.80;9.50;;;18.20;99.90;;;;;;5121736;28;20256;-77
2022/06/23 02:02:05;;;;;;;9.60;9.30;;;18.20;99.90;;;;;;5049582;28;20228;-78
2022/06/23 02:04:39;;;;;;;9.70;9.40;;;18.10;99.90;;;;;;5121908;28;20221;-77
2022/06/23 02:11:07;;;;;;;9.68;9.38;;;18.20;99.90;;;;;;5122783;28;20217;-77
2022/06/23 02:13:44;;;;;;;9.55;9.25;;;18.20;99.90;;;;;;5121975;28;20228;-77
2022/06/23 02:16:20;;;;;;;9.45;9.15;;;18.10;99.90;;;;;;5121923;28;20256;-77
2022/06/23 02:18:57;;;;;;;9.73;9.43;;;18.00;99.90;;;;;;5122176;28;20259;-77
2022/06/23 02:21:31;;;;;;;9.80;9.50;;;18.00;99.90;;;;;;5121971;28;20225;-77
2022/06/23 02:24:05;;;;;;;9.90;9.60;;;18.00;99.90;;;;;;5121079;28;20318;-77
2022/06/23 02:26:39;;;;;;;10.00;9.70;;;17.90;99.90;;;;;;5121424;27;20234;-77
2022/06/23 02:29:16;;;;;;;9.90;9.60;;;17.90;99.90;;;;;;5121336;28;20232;-77
2022/06/23 02:31:52;;;;;;;9.80;9.50;;;17.90;99.90;;;;;;5121161;28;20243;-77
2022/06/23 02:34:29;;;;;;;9.65;9.35;;;17.90;99.90;;;;;;5121268;28;20227;-77
2022/06/23 02:37:07;;;;;;;9.60;9.30;;;17.80;99.90;;;;;;5121187;28;20265;-77
2022/06/23 02:39:45;;;;;;;9.30;9.00;;;17.90;99.90;;;;;;5121704;28;20223;-77
2022/06/23 02:42:27;;;;;;;9.63;9.32;;;17.80;99.90;;;;;;5120994;28;20330;-77
2022/06/23 02:45:38;;;;;;;10.15;9.85;;;17.80;99.90;;;;;;5121526;28;20235;-77
2022/06/23 02:48:25;;;;;;;10.40;10.10;;;17.80;99.90;;;;;;5117774;28;20229;-77
2022/06/23 02:51:17;;;;;;;10.20;9.90;;;17.80;99.90;;;;;;5121123;28;20229;-78
2022/06/23 02:54:14;;;;;;;10.30;10.00;;;17.80;99.90;;;;;;5121515;28;20241;-77
2022/06/23 02:57:08;;;;;;;10.10;9.80;;;17.80;99.90;;;;;;5120485;28;20320;-77
2022/06/23 02:59:47;;;;;;;10.18;9.88;;;17.80;99.90;;;;;;5121550;28;20231;-77
2022/06/23 03:02:25;;;;;;;10.80;10.50;;;17.80;99.90;;;;;;5121255;28;20702;-77
2022/06/23 03:04:57;;;;;;;10.60;10.30;;;17.80;99.90;;;;;;5120626;28;20263;-77
2022/06/23 03:07:33;;;;;;;10.30;10.00;;;17.80;99.90;;;;;;5121483;28;20232;-77
2022/06/23 03:10:10;;;;;;;10.40;10.10;;;17.80;99.90;;;;;;5121465;28;20315;-77
2022/06/23 03:12:42;;;;;;;10.30;10.00;;;17.80;99.90;;;;;;5121320;28;20295;-77
2022/06/23 03:15:15;;;;;;;10.23;9.93;;;17.80;99.90;;;;;;5121705;28;20211;-77
2022/06/23 03:17:48;;;;;;;10.40;10.10;;;17.80;99.90;;;;;;5129076;28;20240;-77
2022/06/23 03:20:29;;;;;;;10.00;9.70;;;17.80;99.90;;;;;;5129314;28;20217;-77
2022/06/23 03:23:04;;;;;;;10.10;9.80;;;17.80;99.90;;;;;;5122985;28;20241;-77
2022/06/23 03:25:41;;;;;;;10.20;9.90;;;17.80;99.90;;;;;;5121725;28;20232;-77
2022/06/23 03:28:17;;;;;;;9.90;9.60;;;17.80;99.90;;;;;;5121108;28;20316;-77
2022/06/23 03:30:52;;;;;;;10.18;9.88;;;17.80;99.90;;;;;;5121339;28;20220;-77
2022/06/23 03:33:26;;;;;;;10.35;10.05;;;17.80;99.90;;;;;;5121581;28;20232;-77
2022/06/23 03:35:58;;;;;;;10.10;9.80;;;17.80;99.90;;;;;;5121731;28;20234;-77
2022/06/23 03:41:41;;;;;;;10.10;9.80;;;17.80;99.90;;;;;;5121673;28;20261;-77
2022/06/23 03:44:20;;;;;;;10.00;9.70;;;17.80;99.90;;;;;;5120962;28;20233;-77
2022/06/23 03:46:55;;;;;;;9.88;9.57;;;17.80;99.90;;;;;;5121423;28;20251;-77
2022/06/23 03:49:45;;;;;;;10.20;9.90;;;17.70;99.90;;;;;;5120961;28;20232;-77
2022/06/23 03:52:24;;;;;;;9.90;9.60;;;17.80;99.90;;;;;;5120531;28;20233;-77
2022/06/23 03:55:25;;;;;;;10.10;9.80;;;17.80;99.90;;;;;;5121218;28;20234;-77
2022/06/23 03:57:58;;;;;;;10.38;10.07;;;17.80;99.90;;;;;;5121011;28;20236;-78
2022/06/23 04:00:35;;;;;;;10.60;10.30;;;17.80;99.90;;;;;;5121184;28;20223;-77
2022/06/23 04:03:31;;;;;;;10.25;9.95;;;17.90;99.90;;;;;;5120843;28;20293;-78
2022/06/23 04:06:23;;;;;;;10.30;10.00;;;17.90;99.90;;;;;;5102654;28;20229;-77
2022/06/23 04:09:01;;;;;;;10.38;10.07;;;17.90;99.90;;;;;;5120670;28;20228;-77
2022/06/23 04:11:45;;;;;;;10.45;10.15;;;17.90;99.90;;;;;;5121082;28;20304;-78
2022/06/23 04:14:30;;;;;;;10.30;10.00;;;17.90;99.90;;;;;;5121677;28;20223;-77
2022/06/23 04:17:11;;;;;;;10.40;10.10;;;18.00;99.90;;;;;;5120590;28;20323;-78
2022/06/23 04:19:43;;;;;;;10.52;10.23;;;18.00;99.90;;;;;;5120721;28;20280;-77
2022/06/23 04:22:25;;;;;;;10.30;10.00;;;18.10;99.90;;;;;;5120066;28;20224;-77
2022/06/23 04:24:59;;;;;;;10.55;10.25;;;18.10;99.90;;;;;;5120212;28;20239;-77
2022/06/23 04:27:38;;;;;;;10.43;10.13;;;18.20;99.90;;;;;;5120885;28;20219;-77
2022/06/23 04:30:08;;;;;;;10.57;10.27;;;18.10;99.90;;;;;;5120893;28;20228;-78
2022/06/23 04:32:37;;;;;;;10.60;10.30;;;18.00;99.90;;;;;;5120554;28;20289;-77
2022/06/23 04:35:16;;;;;;;10.32;10.02;;;18.00;99.90;;;;;;5121098;28;20237;-77
2022/06/23 04:37:52;;;;;;;10.57;10.27;;;18.00;99.90;;;;;;5121919;28;20229;-78
2022/06/23 04:40:26;;;;;;;10.60;10.30;;;18.00;99.90;;;;;;5120137;28;20251;-78
2022/06/23 04:43:24;;;;;;;10.57;10.27;;;18.00;99.90;;;;;;5143822;22;20236;-79
2022/06/23 04:46:32;;;;;;;10.85;10.55;;;18.10;99.90;;;;;;5108529;28;20221;-79
2022/06/23 04:49:24;;;;;;;10.15;9.85;;;18.20;99.90;;;;;;5102674;28;20232;-80
2022/06/23 04:52:12;;;;;;;10.30;10.00;;;18.30;99.90;;;;;;5126128;28;20228;-79
2022/06/23 04:55:18;;;;;;;10.68;10.38;;;18.40;99.90;;;;;;5126577;28;20235;-79
2022/06/23 04:57:51;;;;;;;10.23;9.93;;;18.40;99.90;;;;;;5120871;28;20236;-79
2022/06/23 05:00:27;;;;;;;10.63;10.32;;;18.40;99.90;;;;;;5124488;28;20275;-79
2022/06/23 05:02:58;;;;;;;10.52;10.23;;;18.40;99.90;;;;;;5110241;28;20260;-77
2022/06/23 05:05:30;;;;;;;10.30;10.00;;;18.40;99.90;;;;;;5081278;28;20297;-79
2022/06/23 05:08:03;;;;;;;10.25;9.95;;;18.40;99.90;;;;;;5099864;28;20229;-78
2022/06/23 05:10:36;;;;;;;9.98;9.68;;;18.40;99.90;;;;;;5099758;28;20233;-77
2022/06/23 05:13:07;;;;;;;10.38;10.07;;;18.50;99.90;;;;;;5099620;28;20327;-78
2022/06/23 05:15:44;;;;;;;10.50;10.20;;;18.60;99.90;;;;;;5099074;28;20612;-78
2022/06/23 05:18:17;;;;;;;10.25;9.95;;;18.70;99.90;;;;;;5099087;28;20239;-78
2022/06/23 05:20:50;;;;;;;10.55;10.25;;;18.80;99.90;;;;;;5099547;28;20316;-78
2022/06/23 05:23:27;;;;;;;9.90;9.60;;;18.90;99.90;;;;;;5099464;28;20243;-77
2022/06/23 05:26:05;;;;;;;10.35;10.05;;;19.00;99.90;;;;;;5098834;28;20217;-77
2022/06/23 05:28:37;;;;;;;10.20;9.90;;;19.00;99.90;;;;;;5078765;28;20324;-77
2022/06/23 05:31:16;;;;;;;10.20;9.90;;;19.00;99.90;;;;;;5079786;28;20230;-77
2022/06/23 05:33:48;;;;;;;10.30;10.00;;;19.00;99.90;;;;;;5078586;28;20297;-77
2022/06/23 05:36:24;;;;;;;10.20;9.90;;;19.10;99.90;;;;;;5077889;28;20293;-77
2022/06/23 05:38:58;;;;;;;9.98;9.68;;;19.10;99.90;;;;;;5077699;28;20329;-76
2022/06/23 05:41:30;;;;;;;9.80;9.50;;;19.10;99.90;;;;;;5060066;28;20226;-77
2022/06/23 05:43:59;;;;;;;10.38;10.07;;;19.10;99.90;;;;;;5077751;28;20234;-77
2022/06/23 05:46:30;;;;;;;10.23;9.93;;;19.20;99.90;;;;;;5077365;28;20232;-76
2022/06/23 05:49:01;;;;;;;10.38;10.07;;;19.30;99.90;;;;;;5087286;28;20230;-77
2022/06/23 05:51:39;;;;;;;10.45;10.15;;;19.40;99.90;;;;;;5123032;28;20236;-77
2022/06/23 05:54:14;;;;;;;10.70;10.40;;;19.50;99.90;;;;;;5129009;28;20232;-86
2022/06/23 05:56:50;;;;;;;11.10;10.70;;;19.70;99.90;;;;;;5109435;28;20411;-80
2022/06/23 06:02:36;;;;;;;10.80;10.50;;;19.90;99.90;;;;;;5120025;28;20247;-85
2022/06/23 06:05:31;;;;;;;10.90;10.60;;;20.00;99.90;;;;;;5122543;28;20231;-86
2022/06/23 06:08:13;;;;;;;10.80;10.40;;;20.20;99.90;;;;;;5123767;28;20260;-86
2022/06/23 06:11:11;;;;;;;10.80;10.50;;;20.30;99.90;;;;;;5122863;28;20228;-85
2022/06/23 06:13:42;;;;;;;10.75;10.45;;;20.30;99.90;;;;;;5122431;28;20236;-84
2022/06/23 06:16:10;;;;;;;10.57;10.27;;;20.50;99.90;;;;;;5105044;28;20229;-86
2022/06/23 06:19:07;;;;;;;10.52;10.23;;;20.60;99.90;;;;;;5125943;28;20297;-87
2022/06/23 06:21:40;;;;;;;10.75;10.45;;;20.70;99.90;;;;;;5121392;28;20229;-88
2022/06/23 06:24:25;;;;;;;11.23;10.82;;;20.80;99.90;;;;;;5122086;28;20290;-85
2022/06/23 06:26:56;;;;;;;11.05;10.75;;;20.90;99.90;;;;;;5118548;28;20309;-84
2022/06/23 06:29:32;;;;;;;11.35;10.95;;;21.00;99.90;;;;;;5102571;28;20236;-84
2022/06/23 06:32:30;;;;;;;11.25;10.85;;;21.10;99.90;;;;;;5119347;28;20239;-84
2022/06/23 06:35:15;;;;;;;10.73;10.43;;;21.20;99.90;;;;;;5113360;28;20247;-83
2022/06/23 06:37:53;;;;;;;10.80;10.50;;;21.30;99.90;;;;;;5121914;28;20339;-83
2022/06/23 06:40:21;;;;;;;10.80;10.50;;;21.30;99.90;;;;;;5120170;28;20263;-82
2022/06/23 06:42:55;;;;;;;10.73;10.43;;;21.40;99.90;;;;;;5116437;28;20328;-82
2022/06/23 06:45:27;;;;;;;10.75;10.45;;;21.40;99.90;;;;;;5121817;28;20231;-82
2022/06/23 06:47:56;;;;;;;10.60;10.30;;;21.50;99.90;;;;;;5121209;28;20324;-83
2022/06/23 06:50:33;;;;;;;10.80;10.50;;;21.70;99.90;;;;;;5104784;28;20304;-83
2022/06/23 06:53:11;;;;;;;10.50;10.20;;;21.80;99.90;;;;;;5107595;28;20240;-83
2022/06/23 06:55:44;;;;;;;10.27;9.98;;;21.90;99.90;;;;;;5101375;28;20234;-84
2022/06/23 06:58:18;;;;;;;10.40;10.10;;;22.10;99.90;;;;;;5109160;28;20233;-85
2022/06/23 07:00:59;;;;;;;10.60;10.30;;;22.20;99.90;;;;;;5116503;28;20228;-85
2022/06/23 07:03:28;;;;;;;10.60;10.30;;;22.30;99.90;;;;;;5109311;28;20272;-83
2022/06/23 07:06:03;;;;;;;10.50;10.20;;;22.50;99.90;;;;;;5103225;28;20233;-83
2022/06/23 07:08:38;;;;;;;10.50;10.20;;;22.60;99.90;;;;;;5103330;28;20264;-83
2022/06/23 07:11:15;;;;;;;10.52;10.23;;;22.70;99.90;;;;;;5102315;28;20308;-86
2022/06/23 07:13:51;;;;;;;10.63;10.32;;;22.80;99.90;;;;;;5100550;28;20272;-85
2022/06/23 07:16:35;;;;;;;10.60;10.30;;;22.90;99.90;;;;;;5100510;28;20278;-86
2022/06/23 07:19:12;;;;;;;10.30;10.00;;;23.10;99.90;;;;;;5100939;28;20225;-85
2022/06/23 07:21:48;;;;;;;10.50;10.20;;;23.10;99.90;;;;;;5100470;28;20281;-86
2022/06/23 07:24:28;;;;;;;10.20;9.90;;;23.30;99.90;;;;;;5100358;28;20248;-86
2022/06/23 07:27:06;;;;;;;10.50;10.20;;;23.40;99.90;;;;;;5100070;28;20252;-86
2022/06/23 07:29:43;;;;;;;10.68;10.38;;;23.50;99.90;;;;;;5100193;28;20229;-85
2022/06/23 07:32:21;;;;;;;10.90;10.60;;;23.50;99.90;;;;;;5100855;28;20240;-85
2022/06/23 07:35:01;;;;;;;10.65;10.35;;;23.60;99.90;;;;;;5099989;28;20695;-85
2022/06/23 07:37:37;;;;;;;10.75;10.45;;;23.70;99.90;;;;;;5100850;28;20256;-86
2022/06/23 07:40:11;;;;;;;10.55;10.25;;;23.70;99.90;;;;;;5100599;28;20294;-86
2022/06/23 07:45:42;;;;;;;10.73;10.43;;;23.80;99.90;;;;;;5099150;28;20221;-86
2022/06/23 07:48:10;;;;;;;11.07;10.77;;;23.90;99.90;;;;;;5100605;28;20257;-86
2022/06/23 07:50:40;;;;;;;10.75;10.45;;;24.00;99.90;;;;;;5100450;28;20249;-87
2022/06/23 07:53:19;;;;;;;10.70;10.40;;;24.00;99.90;;;;;;5100111;28;20304;-87
2022/06/23 07:55:49;;;;;;;10.75;10.45;;;24.10;99.90;;;;;;5100142;28;20292;-86
2022/06/23 07:58:23;;;;;;;11.00;10.70;;;24.20;99.90;;;;;;5099278;28;20282;-87
2022/06/23 08:00:55;;;;;;;10.80;10.50;;;24.20;99.90;;;;;;5099724;28;20233;-87
2022/06/23 08:03:33;;;;;;;10.45;10.15;;;24.30;99.90;;;;;;5099294;28;20398;-86
2022/06/23 08:06:14;;;;;;;10.70;10.40;;;24.50;99.90;;;;;;5098941;28;20269;-86
2022/06/23 08:08:50;;;;;;;10.50;10.20;;;24.60;99.90;;;;;;5099646;28;20257;-86
2022/06/23 08:14:17;;;;;;;10.85;10.55;;;24.60;99.90;;;;;;5100910;28;20257;-87
2022/06/23 08:16:51;;;;;;;11.05;10.75;;;24.70;99.90;;;;;;5106253;28;20231;-86
2022/06/23 08:19:32;;;;;;;10.50;10.20;;;24.80;99.90;;;;;;5116351;28;20228;-86
2022/06/23 08:22:21;;;;;;;10.27;9.98;;;24.90;99.90;;;;;;5108349;28;20240;-86
2022/06/23 08:24:58;;;;;;;9.95;9.65;;;24.80;99.90;;;;;;5099069;28;20230;-86
2022/06/23 08:27:29;;;;;;;10.07;9.77;;;24.70;99.90;;;;;;5100731;28;20229;-87
2022/06/23 08:30:03;;;;;;;10.07;9.77;;;24.80;99.90;;;;;;5100345;28;20235;-85
2022/06/23 08:32:44;;;;;;;10.20;9.90;;;25.00;99.90;;;;;;5099241;28;20221;-83
2022/06/23 08:35:25;;;;;;;10.57;10.27;;;25.10;99.90;;;;;;5080363;28;20230;-86
2022/06/23 08:38:01;;;;;;;10.90;10.60;;;25.20;99.90;;;;;;5080015;28;20256;-86
2022/06/23 08:40:49;;;;;;;10.82;10.52;;;25.10;99.90;;;;;;5080595;28;20241;-86
2022/06/23 08:43:26;;;;;;;11.20;10.90;;;25.30;99.90;;;;;;5081000;28;20264;-86
2022/06/23 08:46:06;;;;;;;10.70;10.40;;;25.40;99.90;;;;;;5079501;28;20221;-87
2022/06/23 08:48:53;;;;;;;10.73;10.43;;;25.40;99.90;;;;;;5080599;28;20257;-87
2022/06/23 08:51:30;;;;;;;10.68;10.38;;;25.40;99.90;;;;;;5081341;28;20222;-86
2022/06/23 08:54:13;;;;;;;10.65;10.35;;;25.60;99.90;;;;;;5082032;28;20290;-86
2022/06/23 08:56:55;;;;;;;10.70;10.40;;;25.80;99.90;;;;;;5092492;28;20241;-86
2022/06/23 08:59:35;;;;;;;10.80;10.50;;;25.70;99.90;;;;;;5091996;28;20260;-86
2022/06/23 09:02:20;;;;;;;10.70;10.40;;;25.60;99.90;;;;;;5097180;28;20255;-86
2022/06/23 09:04:58;;;;;;;11.30;11.00;;;25.80;99.90;;;;;;5110958;28;20263;-86
2022/06/23 09:07:47;;;;;;;11.00;10.70;;;26.10;99.90;;;;;;5109178;28;20233;-86
2022/06/23 09:10:33;;;;;;;11.00;10.70;;;26.40;99.90;;;;;;5105352;28;20201;-85
2022/06/23 09:13:20;;;;;;;10.90;10.60;;;26.50;99.90;;;;;;5096757;28;20229;-86
2022/06/23 09:16:34;;;;;;;11.07;10.77;;;26.70;99.90;;;;;;5094448;28;20222;-86
2022/06/23 09:19:49;;;;;;;11.57;11.18;;;26.60;99.90;;;;;;5067906;28;20238;-86
2022/06/23 09:22:48;;;;;;;11.85;11.45;;;26.80;99.90;;;;;;5093151;28;20235;-86
2022/06/23 09:25:29;;;;;;;11.50;11.10;;;27.20;99.90;;;;;;5089319;28;20233;-86
2022/06/23 09:28:24;;;;;;;11.95;11.55;;;27.40;99.90;;;;;;5078793;28;20218;-86
2022/06/23 09:31:23;;;;;;;11.73;11.32;;;27.60;99.90;;;;;;5075475;28;20379;-86
2022/06/23 09:34:23;;;;;;;11.68;11.27;;;27.90;99.90;;;;;;5078869;28;20261;-86
2022/06/23 09:37:49;;;;;;;11.85;11.45;;;28.20;99.90;;;;;;5081667;28;20287;-86
2022/06/23 09:40:45;;;;;;;11.15;10.85;;;28.20;99.90;;;;;;5060044;28;20285;-83
2022/06/23 09:44:13;;;;;;;11.10;10.80;;;28.30;99.90;;;;;;5062246;28;20242;-84
2022/06/23 09:47:01;;;;;;;10.90;10.60;;;28.50;99.90;;;;;;5062113;28;20294;-85
2022/06/23 09:50:06;;;;;;;11.00;10.70;;;28.10;99.90;;;;;;5061337;28;20230;-84
2022/06/23 09:53:11;;;;;;;11.05;10.75;;;28.00;99.90;;;;;;5059583;28;20219;-83
2022/06/23 09:56:10;;;;;;;10.98;10.68;;;28.00;99.90;;;;;;5062946;28;20297;-82
2022/06/23 09:59:25;;;;;;;11.27;10.98;;;28.30;99.90;;;;;;5063986;28;20309;-82
2022/06/23 10:01:59;;;;;;;11.27;10.98;;;28.50;99.90;;;;;;5054342;28;20265;-82
2022/06/23 10:05:02;;;;;;;11.15;10.85;;;28.80;99.90;;;;;;5090588;28;20285;-82
2022/06/23 10:08:07;;;;;;;11.60;11.20;;;28.80;99.90;;;;;;5065267;28;20226;-82
2022/06/23 10:11:12;;;;;;;11.70;11.30;;;29.10;99.90;;;;;;5063935;28;20242;-82
2022/06/23 10:14:21;;;;;;;11.65;11.25;;;29.50;99.90;;;;;;5064336;28;20235;-82
2022/06/23 10:17:21;;;;;;;11.40;11.10;;;30.00;99.90;;;;;;5063923;28;20303;-82
2022/06/23 10:20:07;;;;;;;11.57;11.18;;;30.20;99.90;;;;;;5057471;28;20219;-82
2022/06/23 10:22:55;;;;;;;11.80;11.40;;;30.20;99.90;;;;;;5063212;28;20245;-82
2022/06/23 10:25:58;;;;;;;11.48;11.18;;;30.20;99.90;;;;;;5063989;28;20219;-82
2022/06/23 10:28:50;;;;;;;11.50;11.20;;;30.30;99.90;;;;;;5062657;28;20238;-82
2022/06/23 10:31:40;;;;;;;11.60;11.27;;;30.20;99.90;;;;;;5062884;28;20270;-83
2022/06/23 10:34:44;;;;;;;11.40;11.10;;;30.40;99.90;;;;;;5063333;28;20245;-82
2022/06/23 10:37:30;;;;;;;11.50;11.20;;;30.50;99.90;;;;;;5064474;28;20227;-82
2022/06/23 10:40:55;;;;;;;11.10;10.80;;;30.10;99.90;;;;;;5063482;28;20290;-82
2022/06/23 10:43:48;;;;;;;11.63;11.30;;;29.80;99.90;;;;;;5104197;22;20235;-80
2022/06/23 10:46:32;;;;;;;11.80;11.40;;;29.40;99.90;;;;;;5133125;27;20236;-80
2022/06/23 10:49:38;;;;;;;11.63;11.23;;;29.00;99.90;;;;;;5142259;27;20235;-78
2022/06/23 10:52:41;;;;;;;12.02;11.63;;;28.50;99.90;;;;;;5133560;27;20288;-79
2022/06/23 10:55:46;;;;;;;11.98;11.57;;;28.20;99.90;;;;;;5102825;28;20233;-82
2022/06/23 10:58:52;;;;;;;12.27;11.88;;;28.30;99.90;;;;;;5104256;28;20249;-82
2022/06/23 11:02:06;;;;;;;11.93;11.52;;;28.60;99.90;;;;;;5104569;28;20232;-83
2022/06/23 11:04:54;;;;;;;11.50;11.18;;;28.80;99.90;;;;;;5116649;28;20232;-78
2022/06/23 11:07:45;;;;;;;11.90;11.50;;;28.70;99.90;;;;;;5127324;28;20227;-79
2022/06/23 11:10:50;;;;;;;12.13;11.73;;;28.60;99.90;;;;;;5122094;28;20318;-79
2022/06/23 11:13:32;;;;;;;11.80;11.40;;;28.80;99.90;;;;;;5116962;28;20228;-77
2022/06/23 11:16:13;;;;;;;12.00;11.60;;;29.30;99.90;;;;;;5121651;28;20231;-78
2022/06/23 11:19:22;;;;;;;12.02;11.63;;;29.30;99.90;;;;;;5122543;28;20215;-79
2022/06/23 11:22:08;;;;;;;12.13;11.73;;;28.90;99.90;;;;;;5124037;28;20297;-79
2022/06/23 11:24:55;;;;;;;11.95;11.55;;;28.80;99.90;;;;;;5123187;28;20263;-81
2022/06/23 11:30:23;;;;;;;11.93;11.52;;;29.60;99.90;;;;;;5122873;28;20294;-81
2022/06/23 11:33:37;;;;;;;11.90;11.50;;;30.10;99.90;;;;;;5123113;28;20229;-80
2022/06/23 11:36:21;;;;;;;11.68;11.27;;;30.20;99.90;;;;;;5123197;28;20319;-80
2022/06/23 11:39:16;;;;;;;12.00;11.60;;;30.20;99.90;;;;;;5109897;28;20218;-81
2022/06/23 11:42:06;;;;;;;12.00;11.60;;;30.30;99.90;;;;;;5117798;28;20224;-81
2022/06/23 11:44:50;;;;;;;11.82;11.43;;;30.60;99.90;;;;;;5122279;28;20236;-81
2022/06/23 11:47:31;;;;;;;12.02;11.63;;;30.30;99.90;;;;;;5122720;28;20236;-81
2022/06/23 11:50:17;;;;;;;11.70;11.30;;;30.00;99.90;;;;;;5122297;28;20241;-81
2022/06/23 11:53:04;;;;;;;11.60;11.20;;;29.90;99.90;;;;;;5121794;28;20221;-81
2022/06/23 11:55:43;;;;;;;11.90;11.50;;;30.10;99.90;;;;;;5122263;28;20236;-81
2022/06/23 11:58:55;;;;;;;11.98;11.57;;;30.60;99.90;;;;;;5121979;28;20311;-81
2022/06/23 12:01:24;;;;;;;11.75;11.35;;;31.00;99.90;;;;;;5129233;28;20296;-80
2022/06/23 12:04:29;;;;;;;11.93;11.52;;;31.50;99.90;;;;;;5126523;28;20243;-81
2022/06/23 12:07:42;;;;;;;11.80;11.40;;;31.20;99.90;;;;;;5129106;28;20260;-81
2022/06/23 12:10:21;;;;;;;11.40;11.10;;;30.90;99.90;;;;;;5101418;28;20254;-81
2022/06/23 12:12:53;;;;;;;11.68;11.27;;;31.00;99.90;;;;;;5123672;28;20236;-81
2022/06/23 12:15:28;;;;;;;11.90;11.50;;;30.70;99.90;;;;;;5123000;28;20325;-81
2022/06/23 12:18:06;;;;;;;11.93;11.52;;;30.50;99.90;;;;;;5121883;28;20224;-81
2022/06/23 12:20:45;;;;;;;12.10;11.70;;;30.70;99.90;;;;;;5119041;28;20760;-80
2022/06/23 12:23:27;;;;;;;12.35;11.95;;;30.70;99.90;;;;;;5120914;28;20308;-81
2022/06/23 12:26:11;;;;;;;12.38;11.98;;;31.00;99.90;;;;;;5122083;28;20243;-81
2022/06/23 12:28:50;;;;;;;12.48;12.07;;;31.10;99.90;;;;;;5111423;28;20324;-81
2022/06/23 12:31:36;;;;;;;12.38;11.98;;;31.60;99.90;;;;;;5122057;28;20370;-81
2022/06/23 12:34:18;;;;;;;12.23;11.82;;;32.00;99.90;;;;;;5120334;28;20216;-81
2022/06/23 12:37:02;;;;;;;11.40;11.10;;;32.30;99.90;;;;;;5125861;28;20224;-81
2022/06/23 12:39:41;;;;;;;11.35;11.05;;;31.80;99.90;;;;;;5124203;28;20220;-82
2022/06/23 12:42:29;;;;;;;11.25;10.95;;;31.60;99.90;;;;;;5123721;28;20224;-81
2022/06/23 12:45:40;;;;;;;11.10;10.80;;;31.70;99.90;;;;;;5122126;28;20233;-83
2022/06/23 12:49:06;;;;;;;11.40;11.10;;;31.80;99.90;;;;;;5119397;28;20322;-81
2022/06/23 12:51:58;;;;;;;11.48;11.18;;;31.90;99.90;;;;;;5098848;28;20220;-81
2022/06/23 12:55:04;;;;;;;11.98;11.57;;;32.10;99.90;;;;;;5122116;28;20241;-81
2022/06/23 12:58:00;;;;;;;11.48;11.18;;;31.80;99.90;;;;;;5122476;28;20239;-82
2022/06/23 13:00:47;;;;;;;11.60;11.20;;;31.60;99.90;;;;;;5123596;28;20221;-82
2022/06/23 13:03:24;;;;;;;11.70;11.30;;;31.90;99.90;;;;;;5123531;28;20281;-82
2022/06/23 13:06:11;;;;;;;11.45;11.10;;;32.00;99.90;;;;;;5123522;28;20262;-82
2022/06/23 13:08:51;;;;;;;11.50;11.20;;;32.00;99.90;;;;;;5122327;28;20315;-82
2022/06/23 13:11:28;;;;;;;11.77;11.38;;;32.00;99.90;;;;;;5125903;28;20320;-83
2022/06/23 13:14:18;;;;;;;11.63;11.23;;;31.90;99.90;;;;;;5127420;28;20236;-83
2022/06/23 13:16:54;;;;;;;11.50;11.20;;;31.90;99.90;;;;;;5125877;28;20228;-81
2022/06/23 13:19:32;;;;;;;11.40;11.10;;;31.80;99.90;;;;;;5130123;28;20229;-83
2022/06/23 13:22:11;;;;;;;11.65;11.25;;;32.00;99.90;;;;;;5129414;28;20224;-83
2022/06/23 13:24:53;;;;;;;11.55;11.25;;;32.00;99.90;;;;;;5128643;28;20315;-83
2022/06/23 13:27:26;;;;;;;11.75;11.35;;;32.00;99.90;;;;;;5128548;28;20271;-83
2022/06/23 13:30:05;;;;;;;11.48;11.18;;;31.90;99.90;;;;;;5128655;28;20302;-82
2022/06/23 13:32:43;;;;;;;11.40;11.10;;;31.90;99.90;;;;;;5127791;28;20259;-82
2022/06/23 13:39:31;;;;;;;11.27;10.98;;;32.00;99.90;;;;;;5063040;28;20286;-86
2022/06/23 13:42:54;;;;;;;11.30;11.00;;;32.40;99.90;;;;;;5124230;28;20234;-87
2022/06/23 13:46:02;;;;;;;11.65;11.25;;;32.00;99.90;;;;;;5097167;28;20225;-86
2022/06/23 13:48:52;;;;;;;11.32;11.02;;;31.70;99.90;;;;;;5110782;28;20260;-87
2022/06/23 13:51:40;;;;;;;12.02;11.63;;;32.10;99.90;;;;;;5116771;28;20230;-86
2022/06/23 14:46:12;;;;;;;11.20;10.90;;;33.40;99.90;;;;;;5135036;22;20239;-87
2022/06/23 14:56:55;;;;;;;10.90;10.60;;;32.40;99.90;;;;;;5016352;28;20236;-86
2022/06/23 14:59:48;;;;;;;11.02;10.73;;;32.50;99.90;;;;;;5101207;28;20256;-84
2022/06/23 15:02:53;;;;;;;10.90;10.60;;;32.90;99.90;;;;;;5092820;28;20244;-85
2022/06/23 15:05:51;;;;;;;10.60;10.30;;;33.20;99.90;;;;;;5091690;28;20225;-85
2022/06/23 15:08:40;;;;;;;11.18;10.88;;;33.20;99.90;;;;;;5100684;28;20222;-85
2022/06/23 15:11:39;;;;;;;11.20;10.90;;;32.70;99.90;;;;;;5100529;28;20237;-84
2022/06/23 15:25:42;;;;;;;11.10;10.80;;;33.40;99.90;;;;;;4961371;28;20205;-84
2022/06/23 15:28:47;;;;;;;10.80;10.50;;;33.10;99.90;;;;;;5038341;28;20238;-85
2022/06/23 15:31:53;;;;;;;11.15;10.85;;;32.50;99.90;;;;;;5079740;28;20240;-85